Time;durP1;ratioP1;P1;durP2;ratioP2;P2;SDS_P1;SDS_P2;PMS_P1;PMS_P2;Temp;Humidity;BMP_temperature;BMP_pressure;BME280_temperature;BME280_humidity;BME280_pressure;Samples;Min_cycle;Max_cycle;Signal;HPM_P1;HPM_P2
2023/08/31 00:00:37;;;;;;;1.60;1.30;;;17.00;99.90;;;;;;7391757;19;20175;-78
2023/08/31 00:03:03;;;;;;;1.35;1.10;;;17.10;99.90;;;;;;7391519;19;20520;-77
2023/08/31 00:05:30;;;;;;;2.75;1.15;;;17.10;99.90;;;;;;7387919;19;20190;-78
2023/08/31 00:07:56;;;;;;;1.50;1.00;;;17.20;99.90;;;;;;7388763;19;20134;-78
2023/08/31 00:10:23;;;;;;;1.48;1.20;;;17.20;99.90;;;;;;7388283;19;20518;-79
2023/08/31 00:12:49;;;;;;;1.90;1.08;;;17.10;99.90;;;;;;7386942;19;20651;-78
2023/08/31 00:15:15;;;;;;;1.65;1.10;;;17.00;99.90;;;;;;7389257;19;20153;-79
2023/08/31 00:17:42;;;;;;;1.48;1.25;;;17.00;99.90;;;;;;7391880;19;20130;-79
2023/08/31 00:20:11;;;;;;;4.88;1.10;;;17.00;99.90;;;;;;7390557;19;20146;-79
2023/08/31 00:22:37;;;;;;;2.38;1.33;;;16.90;99.90;;;;;;7391237;19;20144;-78
2023/08/31 00:25:08;;;;;;;2.58;1.50;;;17.00;99.90;;;;;;7389739;19;20157;-78
2023/08/31 00:27:36;;;;;;;1.40;1.10;;;16.90;99.90;;;;;;7390644;19;20150;-79
2023/08/31 00:30:06;;;;;;;2.78;0.80;;;17.00;99.90;;;;;;7387132;19;20145;-80
2023/08/31 00:32:33;;;;;;;2.85;1.20;;;16.70;99.90;;;;;;7391292;19;20163;-78
2023/08/31 00:34:59;;;;;;;2.88;1.05;;;16.60;99.90;;;;;;7390286;19;20153;-80
2023/08/31 00:37:25;;;;;;;2.60;0.90;;;16.70;99.90;;;;;;7390674;19;20135;-80
2023/08/31 00:39:52;;;;;;;2.92;1.73;;;16.70;99.90;;;;;;7389657;19;20150;-79
2023/08/31 00:42:18;;;;;;;1.70;1.10;;;16.80;99.90;;;;;;7390030;19;20177;-80
2023/08/31 00:44:47;;;;;;;1.52;1.20;;;16.90;99.90;;;;;;7389870;19;20630;-80
2023/08/31 00:47:14;;;;;;;3.03;1.05;;;16.90;99.90;;;;;;7389105;19;20146;-81
2023/08/31 00:49:40;;;;;;;1.77;1.33;;;16.80;99.90;;;;;;7388571;19;20145;-80
2023/08/31 00:52:07;;;;;;;1.52;1.20;;;16.80;99.90;;;;;;7390691;19;20141;-80
2023/08/31 00:54:34;;;;;;;1.60;1.20;;;16.90;99.90;;;;;;7390360;19;20547;-81
2023/08/31 00:57:00;;;;;;;2.15;0.98;;;16.80;99.90;;;;;;7388821;19;20162;-79
2023/08/31 00:59:26;;;;;;;1.73;1.30;;;16.90;99.90;;;;;;7390020;19;20146;-80
2023/08/31 01:01:55;;;;;;;1.58;1.08;;;16.90;99.90;;;;;;7388772;19;20517;-80
2023/08/31 01:04:55;;;;;;;3.58;1.20;;;16.80;99.90;;;;;;7388431;19;20147;-80
2023/08/31 01:07:52;;;;;;;2.17;1.38;;;16.60;99.90;;;;;;7392261;19;20490;-80
2023/08/31 01:10:31;;;;;;;1.42;1.23;;;16.60;99.90;;;;;;7397993;19;20483;-80
2023/08/31 01:13:13;;;;;;;1.65;1.20;;;16.70;99.90;;;;;;7397047;19;20166;-79
2023/08/31 01:15:41;;;;;;;4.05;1.63;;;16.70;99.90;;;;;;7398531;19;20134;-79
2023/08/31 01:18:11;;;;;;;2.47;1.10;;;16.50;99.90;;;;;;7394622;19;20145;-80
2023/08/31 01:20:52;;;;;;;2.08;1.00;;;16.50;99.90;;;;;;7395907;19;20159;-80
2023/08/31 01:23:20;;;;;;;1.70;1.10;;;16.60;99.90;;;;;;7394897;19;20137;-80
2023/08/31 01:25:48;;;;;;;2.20;1.20;;;16.60;99.90;;;;;;7393881;19;20454;-81
2023/08/31 01:28:14;;;;;;;1.45;1.27;;;16.60;99.90;;;;;;7393966;19;20206;-81
2023/08/31 01:30:40;;;;;;;1.70;1.23;;;16.60;99.90;;;;;;7393978;19;20138;-79
2023/08/31 01:33:06;;;;;;;1.50;1.10;;;16.50;99.90;;;;;;7395258;19;20168;-79
2023/08/31 01:35:39;;;;;;;3.85;1.10;;;16.60;99.90;;;;;;7395632;19;20690;-79
2023/08/31 01:38:08;;;;;;;1.42;1.33;;;16.70;99.90;;;;;;7396626;19;20591;-80
2023/08/31 01:40:36;;;;;;;1.63;1.10;;;16.60;99.90;;;;;;7397248;19;20151;-79
2023/08/31 01:43:05;;;;;;;2.22;1.30;;;16.70;99.90;;;;;;7396747;19;20135;-79
2023/08/31 01:45:33;;;;;;;3.72;1.30;;;16.50;99.90;;;;;;7395886;19;20520;-81
2023/08/31 01:47:59;;;;;;;4.50;1.45;;;16.40;99.90;;;;;;7395556;19;20642;-79
2023/08/31 01:50:25;;;;;;;1.98;1.38;;;16.40;99.90;;;;;;7395587;19;20150;-80
2023/08/31 01:52:53;;;;;;;1.52;1.05;;;16.40;99.90;;;;;;7397859;19;20154;-79
2023/08/31 01:55:19;;;;;;;2.58;1.25;;;16.40;99.90;;;;;;7393995;19;20162;-79
2023/08/31 01:57:44;;;;;;;2.00;1.38;;;16.40;99.90;;;;;;7395204;19;20160;-79
2023/08/31 02:00:11;;;;;;;1.40;1.20;;;16.40;99.90;;;;;;7394225;19;20155;-80
2023/08/31 02:02:37;;;;;;;4.18;1.30;;;16.40;99.90;;;;;;7394948;19;20143;-80
2023/08/31 02:05:04;;;;;;;4.28;1.60;;;16.40;99.90;;;;;;7392247;19;20159;-80
2023/08/31 02:07:30;;;;;;;2.80;1.40;;;16.40;99.90;;;;;;7395204;19;20135;-78
2023/08/31 02:09:56;;;;;;;1.40;1.25;;;16.40;99.90;;;;;;7393615;19;20150;-80
2023/08/31 02:12:22;;;;;;;2.28;1.52;;;16.40;99.90;;;;;;7395591;19;20571;-80
2023/08/31 02:14:48;;;;;;;2.15;1.10;;;16.30;99.90;;;;;;7392563;19;20138;-79
2023/08/31 02:17:14;;;;;;;1.75;1.20;;;16.40;99.90;;;;;;7392062;19;20134;-79
2023/08/31 02:19:40;;;;;;;2.92;1.30;;;16.40;99.90;;;;;;7394431;19;20509;-79
2023/08/31 02:22:05;;;;;;;1.98;1.50;;;16.40;99.90;;;;;;7395670;19;20147;-80
2023/08/31 02:24:31;;;;;;;1.75;1.38;;;16.40;99.90;;;;;;7394163;19;20143;-80
2023/08/31 02:26:57;;;;;;;1.88;1.10;;;16.40;99.90;;;;;;7394752;19;20154;-80
2023/08/31 02:29:23;;;;;;;2.35;1.30;;;16.40;99.90;;;;;;7393633;19;20151;-79
2023/08/31 02:31:49;;;;;;;1.33;1.20;;;16.40;99.90;;;;;;7394004;19;20146;-78
2023/08/31 02:34:14;;;;;;;2.97;1.25;;;16.40;99.90;;;;;;7391795;19;20481;-79
2023/08/31 02:36:40;;;;;;;3.47;1.30;;;16.40;99.90;;;;;;7394935;19;20143;-79
2023/08/31 02:39:06;;;;;;;2.85;1.08;;;16.40;99.90;;;;;;7393100;19;20157;-79
2023/08/31 02:41:32;;;;;;;1.52;1.00;;;16.50;99.90;;;;;;7395250;19;20150;-79
2023/08/31 02:43:57;;;;;;;2.90;1.27;;;16.40;99.90;;;;;;7392832;19;20150;-78
2023/08/31 02:46:24;;;;;;;2.40;1.42;;;16.30;99.90;;;;;;7394317;19;20131;-80
2023/08/31 02:48:50;;;;;;;3.10;1.38;;;16.30;99.90;;;;;;7389917;19;20138;-79
2023/08/31 02:51:16;;;;;;;2.67;1.20;;;16.30;99.90;;;;;;7393141;19;20218;-79
2023/08/31 02:53:44;;;;;;;1.92;1.30;;;16.40;99.90;;;;;;7389941;19;20248;-80
2023/08/31 02:56:09;;;;;;;2.20;1.30;;;16.30;99.90;;;;;;7393393;19;20610;-79
2023/08/31 02:58:35;;;;;;;2.38;1.23;;;16.20;99.90;;;;;;7392998;19;20147;-79
2023/08/31 03:01:11;;;;;;;1.67;1.10;;;16.20;99.90;;;;;;7393375;19;20588;-79
2023/08/31 03:03:42;;;;;;;1.98;1.30;;;16.20;99.90;;;;;;7392018;19;20134;-80
2023/08/31 03:06:09;;;;;;;2.45;1.25;;;16.30;99.90;;;;;;7392719;19;20146;-79
2023/08/31 03:08:36;;;;;;;1.90;1.20;;;16.30;99.90;;;;;;7390964;19;20135;-79
2023/08/31 03:11:02;;;;;;;1.35;1.23;;;16.40;99.90;;;;;;7394146;19;20130;-78
2023/08/31 03:13:29;;;;;;;2.40;1.05;;;16.40;99.90;;;;;;7392555;19;20217;-79
2023/08/31 03:15:56;;;;;;;1.35;1.20;;;16.30;99.90;;;;;;7391200;19;20757;-80
2023/08/31 03:18:22;;;;;;;2.45;1.15;;;16.40;99.90;;;;;;7391755;19;20153;-80
2023/08/31 03:20:48;;;;;;;1.90;1.10;;;16.30;99.90;;;;;;7391099;19;20230;-79
2023/08/31 03:23:14;;;;;;;2.25;1.33;;;16.40;99.90;;;;;;7392221;19;20218;-79
2023/08/31 03:25:40;;;;;;;3.42;1.05;;;16.40;99.90;;;;;;7389881;19;20135;-79
2023/08/31 03:28:05;;;;;;;5.55;1.10;;;16.40;99.90;;;;;;7388672;19;20138;-78
2023/08/31 03:30:31;;;;;;;1.45;1.30;;;16.40;99.90;;;;;;7389932;19;20141;-78
2023/08/31 03:32:57;;;;;;;3.28;1.20;;;16.40;99.90;;;;;;7391722;19;20177;-79
2023/08/31 03:35:27;;;;;;;1.65;1.25;;;16.40;99.90;;;;;;7391843;19;20603;-79
2023/08/31 03:37:53;;;;;;;2.35;1.10;;;16.40;99.90;;;;;;7391358;19;20160;-78
2023/08/31 03:40:19;;;;;;;2.80;1.30;;;16.30;99.90;;;;;;7393023;19;20157;-78
2023/08/31 03:42:45;;;;;;;3.63;1.15;;;16.30;99.90;;;;;;7390934;19;20241;-79
2023/08/31 03:45:11;;;;;;;1.63;1.23;;;16.30;99.90;;;;;;7391301;19;20123;-79
2023/08/31 03:47:37;;;;;;;2.05;1.20;;;16.20;99.90;;;;;;7391767;19;20149;-79
2023/08/31 03:50:04;;;;;;;2.03;1.25;;;16.10;99.90;;;;;;7390271;19;20639;-79
2023/08/31 03:52:29;;;;;;;2.25;1.10;;;16.20;99.90;;;;;;7391738;19;20141;-79
2023/08/31 03:54:55;;;;;;;1.83;1.10;;;16.10;99.90;;;;;;7389439;19;20150;-78
2023/08/31 03:57:21;;;;;;;2.25;1.10;;;16.20;99.90;;;;;;7389671;19;20134;-79
2023/08/31 03:59:47;;;;;;;2.17;1.52;;;16.20;99.90;;;;;;7390696;19;20576;-78
2023/08/31 04:02:13;;;;;;;3.45;1.40;;;16.10;99.90;;;;;;7392202;19;20164;-78
2023/08/31 04:04:39;;;;;;;1.42;1.08;;;16.10;99.90;;;;;;7389742;19;20416;-79
2023/08/31 04:07:06;;;;;;;1.55;1.10;;;16.20;99.90;;;;;;7390407;19;20245;-78
2023/08/31 04:09:32;;;;;;;2.25;1.42;;;16.20;99.90;;;;;;7392135;19;20173;-79
2023/08/31 04:11:58;;;;;;;1.42;1.25;;;16.10;99.90;;;;;;7392201;19;20142;-78
2023/08/31 04:14:26;;;;;;;5.47;1.60;;;16.10;99.90;;;;;;7391089;19;20138;-79
2023/08/31 04:16:52;;;;;;;2.00;1.35;;;16.10;99.90;;;;;;7390456;19;20154;-78
2023/08/31 04:19:17;;;;;;;1.90;1.30;;;16.00;99.90;;;;;;7391126;19;20134;-78
2023/08/31 04:21:43;;;;;;;1.77;1.13;;;16.10;99.90;;;;;;7390742;19;20150;-79
2023/08/31 04:24:10;;;;;;;1.52;1.17;;;16.10;99.90;;;;;;7391362;19;20380;-78
2023/08/31 04:26:36;;;;;;;2.58;1.77;;;16.10;99.90;;;;;;7390157;19;20202;-78
2023/08/31 04:29:05;;;;;;;2.95;1.42;;;16.10;99.90;;;;;;7387264;19;20155;-79
2023/08/31 04:31:32;;;;;;;1.90;1.33;;;16.10;99.90;;;;;;7391241;19;20167;-78
2023/08/31 04:33:58;;;;;;;3.75;1.40;;;16.10;99.90;;;;;;7391239;19;20143;-79
2023/08/31 04:36:25;;;;;;;2.00;1.30;;;16.10;99.90;;;;;;7389896;19;20142;-79
2023/08/31 04:38:51;;;;;;;4.47;1.60;;;16.20;99.90;;;;;;7389847;19;20752;-79
2023/08/31 04:41:17;;;;;;;1.83;1.38;;;16.10;99.90;;;;;;7395202;19;20462;-78
2023/08/31 04:43:43;;;;;;;2.08;1.23;;;15.90;99.90;;;;;;7395847;19;20134;-79
2023/08/31 04:46:09;;;;;;;1.92;1.40;;;16.00;99.90;;;;;;7395968;19;20218;-78
2023/08/31 04:48:36;;;;;;;2.47;1.50;;;16.10;99.90;;;;;;7395818;19;20146;-79
2023/08/31 04:51:03;;;;;;;2.08;1.42;;;16.00;99.90;;;;;;7395756;19;20230;-78
2023/08/31 04:53:32;;;;;;;3.30;1.75;;;16.00;99.90;;;;;;7397200;19;20587;-77
2023/08/31 04:55:58;;;;;;;3.55;1.75;;;16.00;99.90;;;;;;7396463;19;20162;-77
2023/08/31 04:58:24;;;;;;;3.05;1.08;;;16.00;99.90;;;;;;7397308;19;20145;-78
2023/08/31 05:00:53;;;;;;;2.65;1.48;;;15.90;99.90;;;;;;7396640;19;20153;-79
2023/08/31 05:03:19;;;;;;;2.70;1.75;;;16.00;99.90;;;;;;7395366;19;20138;-77
2023/08/31 05:05:44;;;;;;;3.00;1.52;;;16.00;99.90;;;;;;7393457;19;20143;-78
2023/08/31 05:08:10;;;;;;;2.70;1.70;;;15.90;99.90;;;;;;7394574;19;20486;-79
2023/08/31 05:10:36;;;;;;;2.95;1.40;;;16.10;99.90;;;;;;7396297;19;20165;-77
2023/08/31 05:13:01;;;;;;;2.67;1.52;;;16.00;99.90;;;;;;7395813;19;20149;-79
2023/08/31 05:15:28;;;;;;;3.63;1.42;;;16.10;99.90;;;;;;7395259;19;20146;-78
2023/08/31 05:17:54;;;;;;;4.18;1.30;;;16.00;99.90;;;;;;7394090;19;20141;-79
2023/08/31 05:20:22;;;;;;;2.47;1.52;;;16.00;99.90;;;;;;7395838;19;20234;-79
2023/08/31 05:22:48;;;;;;;2.72;1.40;;;16.10;99.90;;;;;;7394516;19;20740;-78
2023/08/31 05:25:14;;;;;;;4.35;1.58;;;16.10;99.90;;;;;;7394947;19;20138;-79
2023/08/31 05:27:39;;;;;;;2.55;1.55;;;16.10;99.90;;;;;;7395227;19;20591;-79
2023/08/31 05:30:06;;;;;;;1.80;1.45;;;16.10;99.90;;;;;;7393436;19;20131;-79
2023/08/31 05:32:32;;;;;;;1.65;1.30;;;16.10;99.90;;;;;;7395995;19;20147;-78
2023/08/31 05:34:59;;;;;;;4.30;1.75;;;16.20;99.90;;;;;;7393186;19;20279;-79
2023/08/31 05:37:25;;;;;;;3.20;1.80;;;16.10;99.90;;;;;;7395433;19;20575;-78
2023/08/31 05:39:51;;;;;;;3.63;1.80;;;16.10;99.90;;;;;;7392984;19;20146;-78
2023/08/31 05:42:17;;;;;;;4.80;1.50;;;16.10;99.90;;;;;;7393993;19;20163;-78
2023/08/31 05:44:43;;;;;;;2.17;1.50;;;16.00;99.90;;;;;;7393810;19;20146;-78
2023/08/31 05:47:10;;;;;;;2.92;2.08;;;16.10;99.90;;;;;;7393907;19;20177;-78
2023/08/31 05:49:35;;;;;;;3.72;1.65;;;16.20;99.90;;;;;;7395133;19;20158;-79
2023/08/31 05:52:01;;;;;;;4.38;1.73;;;16.10;99.90;;;;;;7392657;19;20498;-78
2023/08/31 05:54:27;;;;;;;5.53;1.90;;;16.10;99.90;;;;;;7393588;19;20142;-77
2023/08/31 05:56:53;;;;;;;5.32;2.15;;;16.10;99.90;;;;;;7392164;19;20141;-79
2023/08/31 05:59:18;;;;;;;2.58;1.60;;;16.30;99.90;;;;;;7391449;19;20510;-76
2023/08/31 06:01:44;;;;;;;5.55;2.70;;;16.20;99.90;;;;;;7392962;19;20165;-81
2023/08/31 06:04:10;;;;;;;3.05;1.42;;;16.20;99.90;;;;;;7391541;19;20181;-78
2023/08/31 06:06:36;;;;;;;5.28;1.80;;;16.10;99.90;;;;;;7393705;19;20139;-79
2023/08/31 06:09:02;;;;;;;3.40;1.80;;;16.10;99.90;;;;;;7391351;19;20151;-81
2023/08/31 06:11:28;;;;;;;4.25;1.85;;;16.20;99.90;;;;;;7392557;19;20146;-81
2023/08/31 06:13:54;;;;;;;2.67;1.70;;;16.20;99.90;;;;;;7396105;19;20167;-80
2023/08/31 06:16:20;;;;;;;2.10;1.50;;;16.30;99.90;;;;;;7393594;19;20142;-81
2023/08/31 06:18:45;;;;;;;3.55;1.95;;;16.40;99.90;;;;;;7393302;19;20151;-80
2023/08/31 06:21:11;;;;;;;2.78;1.85;;;16.30;99.90;;;;;;7395126;19;20135;-80
2023/08/31 06:23:37;;;;;;;4.78;2.33;;;16.40;99.90;;;;;;7392570;19;20622;-80
2023/08/31 06:26:03;;;;;;;5.93;1.83;;;16.40;99.90;;;;;;7391951;19;20151;-80
2023/08/31 06:28:29;;;;;;;4.63;1.90;;;16.40;99.90;;;;;;7391919;19;20147;-81
2023/08/31 06:30:55;;;;;;;3.42;1.95;;;16.60;99.90;;;;;;7394072;19;20139;-80
2023/08/31 06:33:21;;;;;;;3.35;1.70;;;16.70;99.90;;;;;;7393791;19;20239;-80
2023/08/31 06:35:51;;;;;;;2.97;1.67;;;16.60;99.90;;;;;;7392540;19;20159;-80
2023/08/31 06:38:18;;;;;;;2.55;1.80;;;16.60;99.90;;;;;;7395032;19;20573;-80
2023/08/31 06:40:46;;;;;;;3.08;1.80;;;16.50;99.90;;;;;;7394407;19;20210;-81
2023/08/31 06:43:12;;;;;;;2.60;1.67;;;16.50;99.90;;;;;;7394214;19;20131;-79
2023/08/31 06:45:38;;;;;;;3.15;2.17;;;16.50;99.90;;;;;;7393997;19;20154;-80
2023/08/31 06:48:05;;;;;;;5.78;2.28;;;16.50;99.90;;;;;;7393298;19;20230;-80
2023/08/31 06:50:32;;;;;;;6.30;2.13;;;16.50;99.90;;;;;;7394949;19;20142;-81
2023/08/31 06:52:58;;;;;;;4.97;2.10;;;16.50;99.90;;;;;;7394388;19;20205;-80
2023/08/31 06:55:24;;;;;;;5.97;1.90;;;16.60;99.90;;;;;;7391761;19;20912;-79
2023/08/31 06:57:50;;;;;;;2.97;1.85;;;16.50;99.90;;;;;;7392201;19;20147;-77
2023/08/31 07:00:16;;;;;;;3.80;1.45;;;16.50;99.90;;;;;;7392862;19;20146;-77
2023/08/31 07:02:43;;;;;;;4.40;1.45;;;16.50;99.90;;;;;;7394016;19;20149;-77
2023/08/31 07:05:11;;;;;;;3.33;1.70;;;16.60;99.90;;;;;;7387198;19;20197;-77
2023/08/31 07:07:37;;;;;;;2.88;1.50;;;16.70;99.90;;;;;;7392049;19;20131;-79
2023/08/31 07:10:05;;;;;;;5.07;1.83;;;16.90;99.90;;;;;;7388130;19;20779;-78
2023/08/31 07:12:31;;;;;;;2.65;1.55;;;17.00;99.90;;;;;;7391227;19;20899;-79
2023/08/31 07:14:57;;;;;;;2.65;1.42;;;17.20;99.90;;;;;;7390444;19;20161;-79
2023/08/31 07:17:23;;;;;;;3.60;1.30;;;17.00;99.90;;;;;;7390196;19;20238;-77
2023/08/31 07:19:48;;;;;;;3.10;2.00;;;17.00;99.90;;;;;;7392069;19;20538;-79
2023/08/31 07:22:17;;;;;;;1.85;1.60;;;17.20;99.90;;;;;;7392480;19;20186;-78
2023/08/31 07:24:43;;;;;;;2.55;1.45;;;17.50;99.90;;;;;;7389901;19;20169;-78
2023/08/31 07:27:09;;;;;;;3.88;1.35;;;17.50;99.90;;;;;;7392914;19;20487;-79
2023/08/31 07:29:35;;;;;;;3.85;1.40;;;17.70;99.90;;;;;;7391248;19;20202;-76
2023/08/31 07:32:02;;;;;;;2.60;1.80;;;17.50;99.90;;;;;;7390119;19;20863;-80
2023/08/31 07:34:28;;;;;;;4.70;1.38;;;17.70;99.90;;;;;;7392012;19;20130;-78
2023/08/31 07:36:54;;;;;;;2.70;1.50;;;17.70;99.90;;;;;;7390572;19;20508;-77
2023/08/31 07:39:20;;;;;;;3.47;1.90;;;17.90;99.90;;;;;;7390618;19;20134;-79
2023/08/31 07:41:46;;;;;;;4.78;1.60;;;18.10;99.90;;;;;;7390289;19;20139;-79
2023/08/31 07:44:11;;;;;;;5.00;1.50;;;18.50;99.90;;;;;;7388558;19;20126;-77
2023/08/31 07:46:37;;;;;;;3.38;1.25;;;19.10;99.90;;;;;;7392582;19;20135;-78
2023/08/31 07:49:04;;;;;;;5.30;1.92;;;19.70;99.90;;;;;;7385567;19;21898;-77
2023/08/31 07:51:30;;;;;;;1.83;1.23;;;20.10;99.90;;;;;;7390094;19;20571;-77
2023/08/31 07:53:56;;;;;;;1.73;1.30;;;20.80;99.90;;;;;;7390147;19;20146;-79
2023/08/31 07:56:23;;;;;;;4.03;1.50;;;21.30;99.90;;;;;;7391747;19;20206;-78
2023/08/31 07:58:50;;;;;;;2.97;1.15;;;21.60;99.90;;;;;;7392330;19;20523;-77
2023/08/31 08:01:15;;;;;;;4.00;1.40;;;22.00;99.90;;;;;;7390661;19;20547;-77
2023/08/31 08:03:41;;;;;;;2.85;1.83;;;22.30;99.90;;;;;;7391627;19;20138;-76
2023/08/31 08:06:08;;;;;;;4.18;1.42;;;22.50;99.90;;;;;;7389714;19;20146;-76
2023/08/31 08:08:34;;;;;;;2.25;1.30;;;22.70;99.90;;;;;;7386968;19;20190;-77
2023/08/31 08:10:59;;;;;;;2.33;1.30;;;22.70;99.90;;;;;;7388584;19;20191;-78
2023/08/31 08:13:25;;;;;;;3.45;1.48;;;22.90;99.90;;;;;;7389781;19;20206;-76
2023/08/31 08:15:51;;;;;;;1.55;1.17;;;23.00;99.90;;;;;;7387138;19;20134;-78
2023/08/31 08:18:17;;;;;;;2.72;1.45;;;23.10;99.90;;;;;;7389076;19;20147;-77
2023/08/31 08:20:43;;;;;;;2.85;1.33;;;22.20;99.90;;;;;;7388828;19;20145;-77
2023/08/31 08:23:08;;;;;;;3.97;1.45;;;22.40;99.90;;;;;;7388536;19;20754;-77
2023/08/31 08:25:34;;;;;;;2.10;1.38;;;22.30;99.90;;;;;;7389136;19;20613;-77
2023/08/31 08:28:00;;;;;;;2.17;1.42;;;21.80;99.90;;;;;;7388321;19;20148;-78
2023/08/31 08:30:26;;;;;;;2.85;1.30;;;21.30;99.90;;;;;;7389818;19;20206;-77
2023/08/31 08:32:52;;;;;;;2.45;1.23;;;20.80;99.90;;;;;;7388491;19;21734;-77
2023/08/31 08:35:18;;;;;;;3.17;1.27;;;20.40;99.90;;;;;;7389007;19;20134;-78
2023/08/31 08:37:43;;;;;;;3.67;1.50;;;20.40;99.90;;;;;;7388499;19;20206;-76
2023/08/31 08:40:10;;;;;;;3.85;1.50;;;20.30;99.90;;;;;;7389696;19;20156;-78
2023/08/31 08:42:41;;;;;;;5.32;1.40;;;20.10;99.90;;;;;;7387949;19;20165;-77
2023/08/31 08:45:16;;;;;;;5.60;2.13;;;20.10;99.90;;;;;;7388318;19;20498;-77
2023/08/31 08:47:44;;;;;;;2.97;1.23;;;20.50;99.90;;;;;;7386690;19;20142;-76
2023/08/31 08:50:11;;;;;;;4.38;1.17;;;20.80;99.90;;;;;;7387979;19;20134;-78
2023/08/31 08:52:38;;;;;;;4.93;1.70;;;20.60;99.90;;;;;;7388050;19;20242;-77
2023/08/31 08:55:05;;;;;;;2.17;1.25;;;20.40;99.90;;;;;;7386713;19;20236;-77
2023/08/31 08:57:31;;;;;;;2.90;1.23;;;20.10;99.90;;;;;;7387996;19;20135;-77
2023/08/31 09:00:00;;;;;;;5.40;1.20;;;19.80;99.90;;;;;;7388243;19;20316;-77
2023/08/31 09:02:26;;;;;;;2.15;1.10;;;19.60;99.90;;;;;;7388029;19;20475;-77
2023/08/31 09:04:54;;;;;;;2.17;1.30;;;19.40;99.90;;;;;;7385420;19;20182;-78
2023/08/31 09:07:23;;;;;;;2.58;1.30;;;19.70;99.90;;;;;;7386636;19;20897;-76
2023/08/31 09:09:54;;;;;;;2.75;1.30;;;20.10;99.90;;;;;;7387566;19;20147;-76
2023/08/31 09:12:24;;;;;;;3.17;1.33;;;20.30;99.90;;;;;;7388311;19;20450;-77
2023/08/31 09:15:04;;;;;;;1.48;1.17;;;20.50;99.90;;;;;;7387296;19;20173;-78
2023/08/31 09:17:42;;;;;;;3.25;1.20;;;20.80;99.90;;;;;;7385631;19;20147;-78
2023/08/31 09:20:09;;;;;;;4.15;1.40;;;20.80;99.90;;;;;;7386083;19;20147;-77
2023/08/31 09:22:35;;;;;;;4.68;2.00;;;20.60;99.90;;;;;;7387341;19;20157;-78
2023/08/31 09:25:01;;;;;;;3.80;1.90;;;20.50;99.90;;;;;;7386815;19;20146;-77
2023/08/31 09:27:27;;;;;;;5.22;1.65;;;20.20;99.90;;;;;;7388307;19;20155;-77
2023/08/31 09:29:57;;;;;;;3.78;1.45;;;20.30;99.90;;;;;;7393569;19;20486;-77
2023/08/31 09:32:23;;;;;;;5.65;1.70;;;20.40;99.90;;;;;;7394135;19;20620;-77
2023/08/31 09:34:49;;;;;;;3.08;1.40;;;20.50;99.90;;;;;;7392644;19;20190;-77
2023/08/31 09:37:16;;;;;;;2.83;1.30;;;20.50;99.90;;;;;;7395405;19;20468;-78
2023/08/31 09:39:42;;;;;;;3.72;1.80;;;20.20;99.90;;;;;;7395000;19;20207;-76
2023/08/31 09:42:09;;;;;;;2.92;1.85;;;20.00;99.90;;;;;;7394883;19;20735;-77
2023/08/31 09:44:41;;;;;;;4.25;1.40;;;19.90;99.90;;;;;;7392347;19;20158;-76
2023/08/31 09:47:08;;;;;;;4.35;1.70;;;19.80;99.90;;;;;;7391519;19;20626;-76
2023/08/31 09:49:34;;;;;;;4.15;1.98;;;19.80;99.90;;;;;;7392895;19;20154;-76
2023/08/31 09:52:03;;;;;;;3.95;1.33;;;20.20;99.90;;;;;;7391408;19;20266;-76
2023/08/31 09:54:29;;;;;;;2.30;1.63;;;20.50;99.90;;;;;;7392559;19;20894;-77
2023/08/31 09:56:58;;;;;;;3.42;1.48;;;20.70;99.90;;;;;;7390992;19;20146;-77
2023/08/31 09:59:24;;;;;;;2.75;1.20;;;20.70;99.90;;;;;;7393172;19;20146;-77
2023/08/31 10:01:50;;;;;;;3.92;1.40;;;20.50;99.90;;;;;;7389990;19;20139;-77
2023/08/31 10:04:17;;;;;;;4.90;1.60;;;20.70;99.90;;;;;;7391380;19;20277;-77
2023/08/31 10:06:43;;;;;;;2.70;1.50;;;20.70;99.90;;;;;;7393325;19;20575;-77
2023/08/31 10:09:12;;;;;;;1.90;1.40;;;20.70;99.90;;;;;;7389951;19;20242;-77
2023/08/31 10:11:39;;;;;;;3.17;1.40;;;20.80;99.90;;;;;;7391798;19;20155;-77
2023/08/31 10:14:05;;;;;;;3.35;1.52;;;20.70;99.90;;;;;;7393136;19;20146;-78
2023/08/31 10:16:32;;;;;;;2.35;1.30;;;20.70;99.90;;;;;;7391525;19;20161;-78
2023/08/31 10:18:58;;;;;;;2.95;1.42;;;20.60;99.90;;;;;;7394032;19;20175;-76
2023/08/31 10:21:25;;;;;;;2.53;1.17;;;20.50;99.90;;;;;;7392306;19;20142;-76
2023/08/31 10:23:51;;;;;;;2.40;1.42;;;20.60;99.90;;;;;;7391763;19;20155;-77
2023/08/31 10:26:30;;;;;;;2.75;1.65;;;20.50;99.90;;;;;;7392605;19;20139;-76
2023/08/31 10:28:58;;;;;;;4.95;1.77;;;20.40;99.90;;;;;;7389826;19;20645;-77
2023/08/31 10:31:28;;;;;;;3.25;1.67;;;20.20;99.90;;;;;;7392098;19;20618;-77
2023/08/31 10:34:04;;;;;;;2.42;1.48;;;20.20;99.90;;;;;;7390985;19;20522;-78
2023/08/31 10:36:44;;;;;;;3.80;1.60;;;20.20;99.90;;;;;;7393230;19;20150;-76
2023/08/31 10:39:17;;;;;;;2.10;1.20;;;20.10;99.90;;;;;;7393974;19;20237;-76
2023/08/31 10:41:53;;;;;;;3.33;1.65;;;20.10;99.90;;;;;;7393236;19;20168;-77
2023/08/31 10:44:26;;;;;;;3.80;1.50;;;20.10;99.90;;;;;;7390566;19;20189;-77
2023/08/31 10:46:53;;;;;;;2.22;1.30;;;20.30;99.90;;;;;;7391332;19;20529;-77
2023/08/31 10:49:20;;;;;;;2.22;1.20;;;20.30;99.90;;;;;;7388764;19;20146;-78
2023/08/31 10:52:17;;;;;;;2.83;1.27;;;20.30;99.90;;;;;;7391193;19;20599;-77
2023/08/31 10:54:43;;;;;;;3.55;1.40;;;20.30;99.90;;;;;;7390872;19;20181;-76
2023/08/31 10:57:12;;;;;;;4.68;2.20;;;20.30;99.90;;;;;;7391104;19;20138;-78
2023/08/31 10:59:55;;;;;;;4.22;1.75;;;20.30;99.90;;;;;;7394665;19;20142;-76
2023/08/31 11:02:35;;;;;;;5.90;1.77;;;20.10;99.90;;;;;;7391566;19;20794;-78
2023/08/31 11:05:05;;;;;;;5.10;1.90;;;20.10;99.90;;;;;;7388497;19;20208;-78
2023/08/31 11:07:31;;;;;;;4.72;1.48;;;20.00;99.90;;;;;;7391635;19;20161;-76
2023/08/31 11:10:09;;;;;;;2.13;1.27;;;19.90;99.90;;;;;;7389283;19;20694;-76
2023/08/31 11:12:36;;;;;;;7.30;1.60;;;19.80;99.90;;;;;;7393280;19;20245;-78
2023/08/31 11:15:03;;;;;;;3.10;1.58;;;19.70;99.90;;;;;;7390724;19;20138;-77
2023/08/31 11:17:32;;;;;;;3.33;1.50;;;19.60;99.90;;;;;;7392908;19;20139;-77
2023/08/31 11:19:59;;;;;;;3.97;2.00;;;19.70;99.90;;;;;;7392481;19;20149;-76
2023/08/31 11:22:25;;;;;;;4.97;1.55;;;19.70;99.90;;;;;;7389825;19;20134;-77
2023/08/31 11:24:51;;;;;;;1.73;1.15;;;19.80;99.90;;;;;;7389605;19;20206;-76
2023/08/31 11:27:21;;;;;;;4.03;1.65;;;19.70;99.90;;;;;;7390470;19;20154;-77
2023/08/31 11:29:47;;;;;;;3.35;1.55;;;19.80;99.90;;;;;;7389704;19;20126;-77
2023/08/31 11:32:13;;;;;;;2.45;1.40;;;20.00;99.90;;;;;;7392271;19;20150;-77
2023/08/31 11:34:44;;;;;;;3.10;1.38;;;20.10;99.90;;;;;;7388769;19;20142;-78
2023/08/31 11:37:19;;;;;;;4.47;1.48;;;20.30;99.90;;;;;;7391465;19;20135;-78
2023/08/31 11:39:53;;;;;;;2.28;1.30;;;20.20;99.90;;;;;;7390202;19;20237;-76
2023/08/31 11:42:21;;;;;;;4.82;1.50;;;20.20;99.90;;;;;;7390584;19;20143;-77
2023/08/31 11:44:52;;;;;;;4.32;1.52;;;20.30;99.90;;;;;;7389840;19;20164;-77
2023/08/31 11:47:20;;;;;;;4.30;1.80;;;20.30;99.90;;;;;;7388905;19;20164;-77
2023/08/31 11:49:47;;;;;;;2.08;1.60;;;20.20;99.90;;;;;;7390264;19;20632;-77
2023/08/31 11:52:13;;;;;;;2.78;1.92;;;20.00;99.90;;;;;;7388645;19;20618;-77
2023/08/31 11:54:40;;;;;;;3.28;1.50;;;20.00;99.90;;;;;;7391581;19;20606;-77
2023/08/31 11:57:09;;;;;;;4.43;1.95;;;20.20;99.90;;;;;;7389916;19;20127;-76
2023/08/31 11:59:37;;;;;;;2.58;1.50;;;20.10;99.90;;;;;;7392512;19;20134;-77
2023/08/31 12:02:09;;;;;;;4.20;1.70;;;20.20;99.90;;;;;;7388502;19;20186;-76
2023/08/31 12:04:45;;;;;;;5.28;2.10;;;20.30;99.90;;;;;;7387652;19;20197;-77
2023/08/31 12:07:11;;;;;;;5.07;1.90;;;20.40;99.90;;;;;;7387157;19;20242;-77
2023/08/31 12:09:37;;;;;;;2.28;1.30;;;20.40;99.90;;;;;;7391341;19;20509;-77
2023/08/31 12:12:06;;;;;;;2.88;1.40;;;20.30;99.90;;;;;;7387967;19;20143;-77
2023/08/31 12:14:32;;;;;;;3.88;1.40;;;20.30;99.90;;;;;;7389697;19;20483;-76
2023/08/31 12:17:03;;;;;;;4.13;2.28;;;20.40;99.90;;;;;;7388093;19;20150;-76
2023/08/31 12:19:30;;;;;;;2.55;1.48;;;20.30;99.90;;;;;;7388619;19;20137;-76
2023/08/31 12:21:56;;;;;;;2.63;1.35;;;20.20;99.90;;;;;;7389573;19;20607;-77
2023/08/31 12:24:23;;;;;;;2.85;1.20;;;20.40;99.90;;;;;;7388583;19;20135;-77
2023/08/31 12:26:50;;;;;;;3.95;1.70;;;20.40;99.90;;;;;;7388285;19;20142;-78
2023/08/31 12:29:16;;;;;;;4.47;1.75;;;20.40;99.90;;;;;;7385987;19;20161;-77
2023/08/31 12:31:43;;;;;;;4.38;1.80;;;20.50;99.90;;;;;;7388134;19;20154;-77
2023/08/31 12:34:09;;;;;;;5.05;1.77;;;20.50;99.90;;;;;;7388980;19;20139;-77
2023/08/31 12:36:38;;;;;;;5.30;2.08;;;20.50;99.90;;;;;;7389031;19;20639;-76
2023/08/31 12:39:06;;;;;;;6.00;1.70;;;20.50;99.90;;;;;;7387325;19;20155;-78
2023/08/31 12:41:34;;;;;;;3.70;1.52;;;20.60;99.90;;;;;;7389397;19;20603;-77
2023/08/31 12:43:59;;;;;;;4.30;1.38;;;20.90;99.90;;;;;;7388231;19;20135;-76
2023/08/31 12:46:26;;;;;;;3.30;1.60;;;20.70;99.90;;;;;;7388571;19;20554;-77
2023/08/31 12:48:52;;;;;;;4.57;1.27;;;20.80;99.90;;;;;;7385036;19;20217;-77